Time;durP1;ratioP1;P1;durP2;ratioP2;P2;SDS_P1;SDS_P2;PMS_P1;PMS_P2;Temp;Humidity;BMP_temperature;BMP_pressure;BME280_temperature;BME280_humidity;BME280_pressure;Samples;Min_cycle;Max_cycle;Signal;HPM_P1;HPM_P2
2022/07/20 00:00:31;;;;;;;7.40;2.53;;;25.50;65.40;;;;;;5034772;28;20197;-39
2022/07/20 00:03:02;;;;;;;3.83;2.57;;;25.40;65.40;;;;;;5035256;28;20581;-39
2022/07/20 00:05:28;;;;;;;8.23;2.80;;;25.40;66.30;;;;;;5035215;28;20173;-39
2022/07/20 00:07:53;;;;;;;7.27;2.70;;;25.40;65.40;;;;;;5034752;28;20177;-41
2022/07/20 00:13:03;;;;;;;4.63;2.90;;;25.40;65.60;;;;;;5034709;28;20188;-42
2022/07/20 00:15:29;;;;;;;5.07;2.93;;;25.30;65.50;;;;;;5034753;28;20637;-41
2022/07/20 00:17:54;;;;;;;3.47;2.43;;;25.30;65.60;;;;;;5034632;28;20193;-39
2022/07/20 00:20:20;;;;;;;11.30;2.97;;;25.30;65.20;;;;;;5034442;28;20215;-40
2022/07/20 00:22:45;;;;;;;5.93;2.53;;;25.30;65.20;;;;;;5034546;28;20185;-42
2022/07/20 00:25:11;;;;;;;5.70;2.73;;;25.30;65.10;;;;;;5034471;28;20215;-41
2022/07/20 00:27:36;;;;;;;7.83;2.70;;;25.30;65.10;;;;;;5034388;28;20199;-41
2022/07/20 00:30:03;;;;;;;6.50;2.83;;;25.30;65.20;;;;;;5034252;28;20205;-40
2022/07/20 00:32:29;;;;;;;6.00;2.97;;;25.20;65.20;;;;;;5034268;28;20215;-41
2022/07/20 00:34:54;;;;;;;6.47;2.63;;;25.20;65.20;;;;;;5034576;28;20181;-40
2022/07/20 00:37:20;;;;;;;5.93;3.57;;;25.20;65.40;;;;;;5034475;28;20185;-40
2022/07/20 00:39:45;;;;;;;9.27;2.70;;;25.20;65.40;;;;;;5034093;28;20204;-41
2022/07/20 00:42:11;;;;;;;5.87;2.80;;;25.20;65.60;;;;;;5034444;28;20188;-40
2022/07/20 00:44:36;;;;;;;7.23;2.57;;;25.20;65.80;;;;;;5034080;28;20205;-40
2022/07/20 00:47:02;;;;;;;3.50;2.33;;;25.10;66.00;;;;;;5033957;28;20551;-42
2022/07/20 00:49:28;;;;;;;10.00;3.07;;;25.00;65.90;;;;;;5034016;28;20276;-40
2022/07/20 00:51:54;;;;;;;5.07;2.43;;;25.00;66.20;;;;;;5033525;28;20732;-39
2022/07/20 00:54:20;;;;;;;6.00;2.80;;;24.90;66.30;;;;;;5034298;28;20267;-39
2022/07/20 00:56:45;;;;;;;4.83;2.90;;;24.90;66.50;;;;;;5033847;28;20260;-40
2022/07/20 00:59:11;;;;;;;8.73;2.80;;;24.90;66.70;;;;;;5034081;28;20320;-41
2022/07/20 01:01:39;;;;;;;9.67;2.90;;;24.80;66.90;;;;;;5034112;28;20528;-41
2022/07/20 01:04:05;;;;;;;7.73;2.67;;;24.80;67.00;;;;;;5033914;28;20212;-39
2022/07/20 01:06:30;;;;;;;12.73;3.07;;;24.70;66.90;;;;;;5033708;28;20181;-42
2022/07/20 01:08:57;;;;;;;6.17;3.30;;;24.70;66.90;;;;;;5033625;28;20183;-42
2022/07/20 01:11:22;;;;;;;5.37;2.70;;;24.70;67.20;;;;;;5033525;28;20223;-41
2022/07/20 01:13:48;;;;;;;3.93;2.50;;;24.70;67.30;;;;;;5033804;28;20184;-39
2022/07/20 01:16:14;;;;;;;8.97;2.73;;;24.60;67.40;;;;;;5033612;28;20181;-39
2022/07/20 01:18:39;;;;;;;6.30;3.03;;;24.60;67.50;;;;;;5033403;28;20193;-40
2022/07/20 01:21:07;;;;;;;4.93;2.53;;;24.60;67.60;;;;;;5034031;28;20216;-41
2022/07/20 01:23:33;;;;;;;9.27;2.80;;;24.50;67.70;;;;;;5033325;28;20204;-40
2022/07/20 01:25:59;;;;;;;6.00;2.67;;;24.50;67.80;;;;;;5033776;28;20185;-39
2022/07/20 01:28:27;;;;;;;3.33;2.60;;;24.50;67.80;;;;;;5034109;28;20235;-41
2022/07/20 01:30:52;;;;;;;5.47;2.90;;;24.50;68.50;;;;;;5033325;28;20205;-40
2022/07/20 01:33:18;;;;;;;6.83;2.93;;;24.50;67.70;;;;;;5033474;28;20337;-39
2022/07/20 01:35:44;;;;;;;6.70;2.77;;;24.50;67.90;;;;;;5033770;28;20175;-40
2022/07/20 01:38:09;;;;;;;7.63;2.83;;;24.50;67.90;;;;;;5033304;28;20264;-41
2022/07/20 01:40:35;;;;;;;6.03;2.70;;;24.50;67.90;;;;;;5033591;28;20664;-40
2022/07/20 01:43:01;;;;;;;5.47;2.70;;;24.50;67.80;;;;;;5033404;28;20211;-41
2022/07/20 01:45:27;;;;;;;5.70;3.03;;;24.50;68.20;;;;;;5033306;28;20181;-40
2022/07/20 01:47:52;;;;;;;5.63;2.47;;;24.50;68.30;;;;;;5033616;28;20219;-38
2022/07/20 01:50:19;;;;;;;9.60;2.90;;;24.50;68.10;;;;;;5033088;28;20287;-42
2022/07/20 01:52:45;;;;;;;7.73;2.93;;;24.40;68.00;;;;;;5033496;28;20177;-41
2022/07/20 01:55:10;;;;;;;3.90;2.80;;;24.50;68.10;;;;;;5033412;28;20185;-41
2022/07/20 01:57:36;;;;;;;6.70;2.80;;;24.50;68.30;;;;;;5033477;28;20185;-39
2022/07/20 02:00:09;;;;;;;7.13;3.10;;;24.40;68.20;;;;;;5033051;28;20211;-41
2022/07/20 02:02:34;;;;;;;5.17;2.77;;;24.50;68.30;;;;;;5034500;28;20260;-42
2022/07/20 02:05:00;;;;;;;6.27;2.97;;;24.40;68.20;;;;;;5037240;28;20304;-39
2022/07/20 02:07:25;;;;;;;6.13;3.20;;;24.40;68.10;;;;;;5036993;28;20177;-40
2022/07/20 02:09:51;;;;;;;5.60;2.87;;;24.50;69.20;;;;;;5036844;28;20204;-41
2022/07/20 02:12:19;;;;;;;8.33;3.20;;;24.40;68.20;;;;;;5037003;28;20184;-39
2022/07/20 02:14:45;;;;;;;5.97;2.70;;;24.50;68.70;;;;;;5036995;28;20267;-39
2022/07/20 02:17:10;;;;;;;7.63;3.20;;;24.40;68.50;;;;;;5037219;28;20590;-42
2022/07/20 02:19:36;;;;;;;2.63;2.33;;;24.50;69.00;;;;;;5036799;28;20224;-39
2022/07/20 02:22:02;;;;;;;6.10;3.00;;;24.40;69.30;;;;;;5036868;28;20216;-39
2022/07/20 02:24:27;;;;;;;7.80;3.10;;;24.40;68.90;;;;;;5036714;28;20555;-41
2022/07/20 02:26:53;;;;;;;5.10;3.20;;;24.30;69.00;;;;;;5037203;28;20188;-40
2022/07/20 02:29:18;;;;;;;7.33;3.27;;;24.30;69.60;;;;;;5036759;28;20232;-41
2022/07/20 02:31:44;;;;;;;8.23;3.33;;;24.20;69.70;;;;;;5036627;28;20185;-40
2022/07/20 02:34:10;;;;;;;5.23;2.80;;;24.10;69.80;;;;;;5036462;28;20200;-41
2022/07/20 02:36:35;;;;;;;6.43;3.17;;;24.10;70.80;;;;;;5036649;28;20240;-40
2022/07/20 02:39:01;;;;;;;6.67;2.90;;;23.90;70.70;;;;;;5036327;28;20180;-40
2022/07/20 02:41:27;;;;;;;10.30;3.03;;;23.80;70.80;;;;;;5036540;28;20228;-40
2022/07/20 02:43:52;;;;;;;5.63;3.00;;;23.70;71.50;;;;;;5036200;28;20212;-39
2022/07/20 02:46:18;;;;;;;8.17;3.00;;;23.50;71.10;;;;;;5036177;28;20213;-42
2022/07/20 02:48:43;;;;;;;5.90;2.60;;;23.40;71.10;;;;;;5035000;28;20177;-40
2022/07/20 02:51:09;;;;;;;4.47;2.67;;;23.40;71.40;;;;;;5036862;28;20201;-39
2022/07/20 02:53:35;;;;;;;4.90;2.90;;;23.30;71.70;;;;;;5035988;28;20185;-41
2022/07/20 02:56:00;;;;;;;3.63;2.70;;;23.20;72.50;;;;;;5036330;28;20177;-40
2022/07/20 02:58:26;;;;;;;5.33;2.83;;;23.00;72.70;;;;;;5036020;28;20177;-40
2022/07/20 03:00:52;;;;;;;4.33;2.57;;;22.90;73.20;;;;;;5036041;28;20192;-40
2022/07/20 03:03:17;;;;;;;7.23;2.93;;;22.80;73.20;;;;;;5036177;28;20216;-40
2022/07/20 03:05:43;;;;;;;5.10;2.80;;;22.70;73.20;;;;;;5036186;28;20561;-41
2022/07/20 03:08:09;;;;;;;4.83;2.50;;;22.70;74.30;;;;;;5036244;28;20185;-39
2022/07/20 03:10:35;;;;;;;4.17;3.00;;;22.60;74.50;;;;;;5036034;28;20216;-40
2022/07/20 03:13:00;;;;;;;5.93;2.63;;;22.40;74.90;;;;;;5035755;28;20602;-40
2022/07/20 03:15:26;;;;;;;4.87;3.13;;;22.40;75.10;;;;;;5035538;28;20212;-41
2022/07/20 03:17:53;;;;;;;5.73;2.50;;;22.30;75.00;;;;;;5034441;28;20557;-39
2022/07/20 03:20:21;;;;;;;3.33;2.50;;;22.20;75.50;;;;;;5035535;28;20222;-40
2022/07/20 03:22:49;;;;;;;4.77;2.63;;;22.10;75.30;;;;;;5035866;28;20181;-40
2022/07/20 03:25:14;;;;;;;5.00;2.57;;;22.00;75.40;;;;;;5035714;28;20217;-40
2022/07/20 03:27:40;;;;;;;3.30;2.60;;;21.90;75.80;;;;;;5035800;28;20655;-40
2022/07/20 03:30:07;;;;;;;5.97;3.10;;;21.90;76.00;;;;;;5035396;28;20204;-39
2022/07/20 03:32:33;;;;;;;9.37;3.00;;;21.70;76.30;;;;;;5035274;28;20181;-42
2022/07/20 03:34:59;;;;;;;4.50;2.87;;;21.60;77.00;;;;;;5035691;28;20555;-41
2022/07/20 03:37:25;;;;;;;7.63;3.23;;;21.50;77.00;;;;;;5035507;28;20259;-39
2022/07/20 03:39:51;;;;;;;9.00;3.67;;;21.50;77.00;;;;;;5035238;28;20301;-40
2022/07/20 03:42:16;;;;;;;13.90;3.60;;;21.50;77.00;;;;;;5035308;28;20197;-41
2022/07/20 03:44:42;;;;;;;9.13;3.30;;;21.60;77.00;;;;;;5035201;28;20234;-41
2022/07/20 03:47:08;;;;;;;8.90;3.43;;;21.50;77.70;;;;;;5035205;28;20177;-42
2022/07/20 03:49:33;;;;;;;6.73;3.17;;;21.50;77.40;;;;;;5033942;28;20546;-41
2022/07/20 03:51:59;;;;;;;7.70;3.47;;;21.50;77.30;;;;;;5035132;28;20231;-41
2022/07/20 03:54:24;;;;;;;6.13;4.30;;;21.50;77.00;;;;;;5035192;28;20267;-41
2022/07/20 03:56:50;;;;;;;6.50;3.97;;;21.50;77.00;;;;;;5035117;28;20294;-41
2022/07/20 03:59:15;;;;;;;8.07;5.00;;;21.60;77.60;;;;;;5035491;28;20169;-41
2022/07/20 04:01:42;;;;;;;11.67;4.87;;;21.60;79.20;;;;;;5035002;28;20211;-39
2022/07/20 04:04:07;;;;;;;10.03;5.10;;;21.60;80.00;;;;;;5035044;28;20232;-43
2022/07/20 04:06:33;;;;;;;11.67;5.90;;;21.70;80.10;;;;;;5038731;28;20177;-41
2022/07/20 04:08:59;;;;;;;11.73;6.40;;;21.70;80.50;;;;;;5037262;28;20173;-39
2022/07/20 04:11:25;;;;;;;11.50;5.90;;;21.80;82.20;;;;;;5034757;28;20714;-38
2022/07/20 04:13:52;;;;;;;11.33;6.30;;;21.80;81.70;;;;;;5034823;28;20645;-37
2022/07/20 04:16:17;;;;;;;10.50;6.20;;;21.80;82.00;;;;;;5034643;28;20185;-39
2022/07/20 04:18:43;;;;;;;10.67;6.33;;;21.80;82.10;;;;;;5034489;28;20273;-39
2022/07/20 04:21:09;;;;;;;14.67;6.30;;;21.70;82.60;;;;;;5034688;28;20204;-38
2022/07/20 04:23:34;;;;;;;12.93;6.77;;;21.70;82.90;;;;;;5034426;28;20215;-38
2022/07/20 04:26:00;;;;;;;10.20;6.73;;;21.70;83.80;;;;;;5033367;28;20255;-38
2022/07/20 04:28:26;;;;;;;14.00;6.90;;;21.70;83.40;;;;;;5034969;28;20169;-39
2022/07/20 04:30:51;;;;;;;17.17;7.83;;;21.70;83.10;;;;;;5034479;28;20596;-37
2022/07/20 04:33:18;;;;;;;11.43;7.30;;;21.60;83.30;;;;;;5034503;28;20191;-38
2022/07/20 04:35:44;;;;;;;9.83;7.27;;;21.60;84.80;;;;;;5034184;28;20176;-39
2022/07/20 04:38:13;;;;;;;9.90;7.27;;;21.70;85.50;;;;;;5034166;28;20195;-37
2022/07/20 04:40:41;;;;;;;11.00;7.87;;;21.70;86.10;;;;;;5034051;28;20236;-38
2022/07/20 04:43:07;;;;;;;18.30;8.60;;;21.70;86.70;;;;;;5034254;28;20173;-38
2022/07/20 04:45:33;;;;;;;13.37;8.37;;;21.70;87.80;;;;;;5034188;28;20176;-39
2022/07/20 04:47:59;;;;;;;13.97;8.50;;;21.70;88.00;;;;;;5033952;28;20173;-37
2022/07/20 04:50:25;;;;;;;12.73;8.50;;;21.70;88.90;;;;;;5032794;28;20201;-40
2022/07/20 04:52:51;;;;;;;16.20;8.80;;;21.80;89.40;;;;;;5033927;28;20665;-39
2022/07/20 04:55:17;;;;;;;15.17;9.23;;;21.90;89.70;;;;;;5033839;28;20283;-39
2022/07/20 04:57:43;;;;;;;18.80;9.70;;;21.90;90.10;;;;;;5033858;28;20184;-38
2022/07/20 05:00:10;;;;;;;16.40;9.07;;;21.90;90.00;;;;;;5032432;28;20571;-40
2022/07/20 05:02:36;;;;;;;20.90;9.83;;;22.00;90.60;;;;;;5033958;28;20181;-39
2022/07/20 05:05:03;;;;;;;18.47;9.73;;;22.00;90.80;;;;;;5033703;28;20208;-38
2022/07/20 05:07:29;;;;;;;13.60;9.47;;;22.10;90.60;;;;;;5033665;28;20184;-39
2022/07/20 05:09:54;;;;;;;16.83;10.37;;;22.20;91.50;;;;;;5033847;28;20200;-39
2022/07/20 05:12:20;;;;;;;16.20;9.90;;;22.20;92.10;;;;;;5033642;28;20200;-39
2022/07/20 05:14:45;;;;;;;14.50;10.30;;;22.20;92.10;;;;;;5033897;28;20185;-38
2022/07/20 05:17:11;;;;;;;16.93;11.03;;;22.30;92.60;;;;;;5033755;28;20260;-40
2022/07/20 05:19:36;;;;;;;15.47;11.03;;;22.40;93.40;;;;;;5033349;28;20595;-37
2022/07/20 05:22:02;;;;;;;16.37;11.67;;;22.40;94.10;;;;;;5033741;28;20188;-41
2022/07/20 05:24:28;;;;;;;19.07;12.17;;;22.60;94.80;;;;;;5033585;28;20196;-40
2022/07/20 05:26:53;;;;;;;24.33;13.30;;;22.60;95.10;;;;;;5033408;28;20207;-40
2022/07/20 05:29:19;;;;;;;20.37;13.70;;;22.70;96.00;;;;;;5033338;28;20197;-44
2022/07/20 05:31:44;;;;;;;20.40;14.00;;;22.90;96.40;;;;;;5033365;28;20212;-45
2022/07/20 05:34:10;;;;;;;24.43;13.97;;;23.00;97.00;;;;;;5033358;28;20181;-43
2022/07/20 05:36:35;;;;;;;20.00;13.70;;;23.00;97.10;;;;;;5033560;28;20230;-42
2022/07/20 05:39:01;;;;;;;22.17;14.10;;;23.10;97.50;;;;;;5032964;28;20652;-44
2022/07/20 05:41:27;;;;;;;27.40;13.90;;;23.20;98.40;;;;;;5033240;28;20264;-44
2022/07/20 05:43:52;;;;;;;24.70;14.30;;;23.20;98.20;;;;;;5033736;28;20196;-42
2022/07/20 05:46:18;;;;;;;20.57;13.67;;;23.30;98.80;;;;;;5033224;28;20231;-42
2022/07/20 05:48:43;;;;;;;24.30;14.40;;;23.40;99.40;;;;;;5033170;28;20181;-42
2022/07/20 05:51:09;;;;;;;20.40;13.87;;;23.40;99.90;;;;;;5033396;28;20232;-44
2022/07/20 05:53:35;;;;;;;19.73;13.33;;;23.50;99.80;;;;;;5033466;28;20173;-43
2022/07/20 05:56:00;;;;;;;23.37;15.03;;;23.60;99.90;;;;;;5033204;28;20697;-43
2022/07/20 05:58:26;;;;;;;22.13;14.67;;;23.60;99.90;;;;;;5033262;28;20176;-43
2022/07/20 06:00:52;;;;;;;29.57;15.13;;;23.80;99.90;;;;;;5033044;28;20200;-44
2022/07/20 06:03:17;;;;;;;21.30;14.33;;;23.90;99.90;;;;;;5033509;28;20263;-44
2022/07/20 06:05:43;;;;;;;23.80;15.47;;;23.90;99.90;;;;;;5033134;28;20173;-43
2022/07/20 06:08:09;;;;;;;19.27;14.00;;;24.00;99.90;;;;;;5033110;28;20238;-44
2022/07/20 06:10:36;;;;;;;21.40;14.80;;;24.10;99.90;;;;;;5033277;28;20189;-44
2022/07/20 06:13:02;;;;;;;24.03;15.70;;;24.10;99.90;;;;;;5033007;28;20181;-44
2022/07/20 06:15:28;;;;;;;24.10;15.03;;;24.20;99.90;;;;;;5033176;28;20192;-43
2022/07/20 06:17:55;;;;;;;20.63;14.67;;;24.10;99.90;;;;;;5033222;28;20177;-43
2022/07/20 06:20:22;;;;;;;21.67;14.37;;;24.20;99.90;;;;;;5032810;28;20227;-43
2022/07/20 06:22:47;;;;;;;23.50;14.20;;;24.30;99.90;;;;;;5047401;23;20357;-44
2022/07/20 06:25:15;;;;;;;22.67;15.13;;;24.30;99.90;;;;;;5033137;28;20209;-40
2022/07/20 06:27:41;;;;;;;22.90;14.20;;;24.40;99.90;;;;;;5033122;28;20185;-43
2022/07/20 06:30:08;;;;;;;22.63;13.77;;;24.40;99.90;;;;;;5032734;28;20201;-40
2022/07/20 06:32:34;;;;;;;19.77;13.70;;;24.50;99.90;;;;;;5032840;28;20177;-41
2022/07/20 06:34:59;;;;;;;18.20;13.97;;;24.70;99.90;;;;;;5033395;28;20226;-41
2022/07/20 06:37:25;;;;;;;24.07;14.37;;;24.90;99.90;;;;;;5032782;28;20665;-41
2022/07/20 06:39:51;;;;;;;20.27;12.53;;;25.10;99.90;;;;;;5032720;28;20569;-44
2022/07/20 06:42:17;;;;;;;21.27;13.43;;;25.10;98.90;;;;;;5033022;28;20185;-44
2022/07/20 06:44:44;;;;;;;21.13;13.67;;;25.10;98.60;;;;;;5032881;28;20215;-43
2022/07/20 06:47:10;;;;;;;19.20;12.70;;;25.10;99.40;;;;;;5033008;28;20173;-41
2022/07/20 06:49:36;;;;;;;17.50;13.07;;;25.10;99.10;;;;;;5033591;28;20255;-44
2022/07/20 06:52:02;;;;;;;20.00;12.87;;;25.20;99.00;;;;;;5036324;28;20169;-39
2022/07/20 06:54:28;;;;;;;20.17;13.17;;;25.30;99.50;;;;;;5036199;28;20231;-41
2022/07/20 06:56:54;;;;;;;21.77;12.90;;;25.40;99.80;;;;;;5036095;28;20188;-44
2022/07/20 06:59:20;;;;;;;19.73;12.87;;;25.40;98.60;;;;;;5036101;28;20236;-42
2022/07/20 07:01:46;;;;;;;22.63;13.93;;;25.40;99.40;;;;;;5036553;28;20185;-42
2022/07/20 07:04:11;;;;;;;22.27;13.90;;;25.40;99.20;;;;;;5036201;28;20284;-42
2022/07/20 07:06:38;;;;;;;23.10;12.97;;;25.30;99.30;;;;;;5036308;28;20176;-43
2022/07/20 07:09:04;;;;;;;22.37;14.57;;;25.40;99.20;;;;;;5035887;28;20648;-43
2022/07/20 07:11:29;;;;;;;17.60;12.67;;;25.40;99.80;;;;;;5036166;28;20188;-41
2022/07/20 07:13:55;;;;;;;20.93;13.53;;;25.50;99.90;;;;;;5036057;28;20569;-42
2022/07/20 07:16:21;;;;;;;25.37;13.30;;;25.60;99.70;;;;;;5035959;28;20187;-41
2022/07/20 07:18:48;;;;;;;22.70;14.30;;;25.70;99.90;;;;;;5035779;28;20181;-43
2022/07/20 07:21:13;;;;;;;25.70;14.37;;;25.50;99.90;;;;;;5035908;28;20290;-43
2022/07/20 07:23:39;;;;;;;24.63;14.60;;;25.30;99.90;;;;;;5035815;28;20263;-45
2022/07/20 07:26:05;;;;;;;20.00;13.93;;;25.20;99.90;;;;;;5037358;28;20235;-43
2022/07/20 07:28:31;;;;;;;22.23;14.03;;;25.10;99.90;;;;;;5037141;28;20177;-44
2022/07/20 07:30:57;;;;;;;24.77;14.73;;;25.00;99.90;;;;;;5037127;28;20279;-43
2022/07/20 07:33:25;;;;;;;22.03;13.60;;;25.00;99.90;;;;;;5037206;28;20183;-45
2022/07/20 07:35:55;;;;;;;17.33;13.43;;;25.00;99.90;;;;;;5036895;28;20183;-45
2022/07/20 07:38:21;;;;;;;18.10;13.27;;;25.00;99.90;;;;;;5035310;28;20177;-45
2022/07/20 07:40:48;;;;;;;18.50;13.63;;;25.10;99.90;;;;;;5036684;28;20204;-45
2022/07/20 07:43:14;;;;;;;19.80;12.93;;;25.10;99.90;;;;;;5036091;28;20188;-45
2022/07/20 07:45:39;;;;;;;18.87;13.40;;;25.20;99.90;;;;;;5036707;28;20621;-46
2022/07/20 07:48:09;;;;;;;27.33;14.63;;;25.20;99.90;;;;;;5036803;28;20173;-44
2022/07/20 07:50:37;;;;;;;23.73;12.77;;;25.20;99.90;;;;;;5035327;28;20268;-45
2022/07/20 07:53:02;;;;;;;20.77;13.70;;;25.20;99.90;;;;;;5037349;28;20177;-44
2022/07/20 07:55:28;;;;;;;22.40;13.70;;;25.20;99.90;;;;;;5036910;28;20310;-44
2022/07/20 07:57:53;;;;;;;19.90;13.13;;;25.20;99.90;;;;;;5036474;28;20640;-44
2022/07/20 08:00:19;;;;;;;23.33;13.00;;;25.20;99.90;;;;;;5037144;28;20548;-43
2022/07/20 08:02:45;;;;;;;20.00;14.07;;;25.10;99.90;;;;;;5036336;28;20185;-45
2022/07/20 08:05:10;;;;;;;19.20;12.53;;;25.20;99.90;;;;;;5035912;28;20215;-45
2022/07/20 08:07:39;;;;;;;21.30;13.83;;;25.30;99.90;;;;;;5036742;28;20188;-44
2022/07/20 08:10:06;;;;;;;19.47;13.27;;;25.50;99.90;;;;;;5034848;28;20232;-45
2022/07/20 08:12:31;;;;;;;17.63;14.13;;;25.70;99.90;;;;;;5036305;28;20177;-46
2022/07/20 08:14:57;;;;;;;15.97;13.07;;;25.90;99.90;;;;;;5036129;28;20189;-45
2022/07/20 08:17:22;;;;;;;17.60;12.47;;;26.00;99.90;;;;;;5034384;28;20219;-45
2022/07/20 08:19:48;;;;;;;19.80;13.60;;;26.10;99.90;;;;;;5035669;28;20562;-44
2022/07/20 08:22:13;;;;;;;20.53;13.87;;;26.30;99.90;;;;;;5035412;28;20196;-44
2022/07/20 08:24:39;;;;;;;23.97;13.07;;;26.40;99.90;;;;;;5035313;28;20208;-47
2022/07/20 08:27:04;;;;;;;20.67;12.87;;;26.40;99.40;;;;;;5036822;28;20177;-43
2022/07/20 08:29:30;;;;;;;21.27;12.63;;;26.40;98.90;;;;;;5034901;28;20288;-41
2022/07/20 08:31:56;;;;;;;19.30;13.70;;;26.30;98.70;;;;;;5034516;28;20613;-43
2022/07/20 08:34:21;;;;;;;19.23;12.30;;;26.30;98.80;;;;;;5034353;28;20197;-44
2022/07/20 08:36:47;;;;;;;20.00;12.53;;;26.30;98.90;;;;;;5034742;28;20192;-41
2022/07/20 08:39:12;;;;;;;18.43;12.17;;;26.30;99.10;;;;;;5034272;28;20671;-42
2022/07/20 08:41:40;;;;;;;21.13;12.87;;;26.20;99.20;;;;;;5034292;28;20184;-44
2022/07/20 08:44:06;;;;;;;20.27;13.17;;;26.20;99.20;;;;;;5034084;28;20322;-41
2022/07/20 08:46:34;;;;;;;22.97;12.23;;;26.30;99.10;;;;;;5034164;28;20219;-42
2022/07/20 08:49:00;;;;;;;20.13;13.63;;;26.30;99.40;;;;;;5032735;28;20239;-40
2022/07/20 08:51:26;;;;;;;23.47;12.70;;;26.30;99.10;;;;;;5033978;28;20219;-42
2022/07/20 08:53:53;;;;;;;18.87;11.60;;;26.40;99.00;;;;;;5033918;28;20212;-41
2022/07/20 08:56:19;;;;;;;18.77;11.33;;;26.40;98.90;;;;;;5033939;28;20177;-41
2022/07/20 08:58:45;;;;;;;17.73;10.67;;;26.30;98.30;;;;;;5034089;28;20552;-42
2022/07/20 09:01:18;;;;;;;16.33;10.93;;;26.30;98.50;;;;;;5033982;28;20258;-40
2022/07/20 09:04:02;;;;;;;13.30;10.77;;;26.20;98.90;;;;;;5033715;28;20209;-40
2022/07/20 09:06:29;;;;;;;14.87;10.77;;;26.10;99.30;;;;;;5034036;28;20220;-42
2022/07/20 09:09:05;;;;;;;17.13;10.97;;;26.00;99.80;;;;;;5033957;28;20181;-42
2022/07/20 09:11:33;;;;;;;18.17;11.27;;;26.10;99.90;;;;;;5033851;28;20168;-42
2022/07/20 09:13:59;;;;;;;14.63;10.10;;;26.10;99.90;;;;;;5033237;28;20211;-42
2022/07/20 09:16:42;;;;;;;14.90;9.93;;;26.10;99.90;;;;;;5034180;28;20545;-41
2022/07/20 09:19:08;;;;;;;13.80;9.57;;;26.30;99.70;;;;;;5033791;28;20239;-43
2022/07/20 09:21:34;;;;;;;16.13;10.13;;;26.60;99.90;;;;;;5033434;28;20632;-41
2022/07/20 09:24:05;;;;;;;12.67;10.70;;;27.00;98.30;;;;;;5034012;28;20208;-42
2022/07/20 09:26:32;;;;;;;13.03;9.50;;;27.10;97.70;;;;;;5033916;28;20181;-43
2022/07/20 09:28:59;;;;;;;15.87;9.93;;;27.10;97.80;;;;;;5033572;28;20637;-42
2022/07/20 09:31:34;;;;;;;14.57;10.33;;;27.20;97.50;;;;;;5033416;28;20178;-42
2022/07/20 09:34:05;;;;;;;15.30;9.63;;;27.40;97.80;;;;;;5033823;28;20236;-40
2022/07/20 09:36:34;;;;;;;14.23;9.40;;;27.50;97.00;;;;;;5033277;28;20684;-42
2022/07/20 09:39:09;;;;;;;17.00;9.47;;;27.70;96.90;;;;;;5033790;28;20177;-43
2022/07/20 09:41:36;;;;;;;17.93;9.03;;;28.00;95.90;;;;;;5033704;28;20557;-42
2022/07/20 09:44:05;;;;;;;12.00;9.00;;;28.20;96.00;;;;;;5031925;28;20217;-43
2022/07/20 09:46:36;;;;;;;15.27;9.77;;;28.30;96.30;;;;;;5033210;28;20212;-43
2022/07/20 09:49:06;;;;;;;12.63;8.50;;;28.50;95.30;;;;;;5033449;28;20612;-41
2022/07/20 09:51:41;;;;;;;14.33;9.50;;;28.50;94.90;;;;;;5033635;28;20236;-43
2022/07/20 09:54:14;;;;;;;14.37;8.30;;;28.50;95.30;;;;;;5031907;28;20201;-44
2022/07/20 09:56:46;;;;;;;18.00;8.50;;;28.60;94.80;;;;;;5033751;28;20161;-42
2022/07/20 09:59:13;;;;;;;11.63;7.97;;;28.50;94.30;;;;;;5031744;28;20191;-41
2022/07/20 10:01:41;;;;;;;13.63;8.77;;;28.40;95.00;;;;;;5033431;28;20216;-42
2022/07/20 10:04:11;;;;;;;11.27;8.27;;;28.50;95.00;;;;;;5033005;28;20204;-44
2022/07/20 10:06:42;;;;;;;14.67;8.20;;;28.50;94.80;;;;;;5033334;28;20169;-43
2022/07/20 10:09:09;;;;;;;13.10;7.80;;;28.50;94.70;;;;;;5033248;28;20216;-42
2022/07/20 10:11:34;;;;;;;13.30;7.57;;;28.70;94.50;;;;;;5033055;28;20248;-41
2022/07/20 10:14:03;;;;;;;14.17;8.90;;;28.80;94.40;;;;;;5033255;28;20264;-45
2022/07/20 10:16:44;;;;;;;14.40;8.77;;;28.80;94.80;;;;;;5033047;28;20181;-41
2022/07/20 10:19:10;;;;;;;13.40;9.30;;;28.90;94.50;;;;;;5033122;28;20161;-41
2022/07/20 10:21:50;;;;;;;12.07;8.77;;;29.00;94.90;;;;;;5033350;28;20177;-43
2022/07/20 10:24:25;;;;;;;12.27;9.13;;;29.00;95.20;;;;;;5035203;28;20215;-43
2022/07/20 10:26:53;;;;;;;10.82;8.45;;;29.10;95.00;;;;;;5037041;28;20153;-42
2022/07/20 10:29:37;;;;;;;13.48;8.35;;;29.30;94.80;;;;;;5036532;28;20169;-43
2022/07/20 10:32:20;;;;;;;11.00;8.05;;;29.40;94.00;;;;;;5036561;28;20652;-42
2022/07/20 10:34:54;;;;;;;16.63;8.00;;;29.40;94.00;;;;;;5036567;28;20165;-43
2022/07/20 10:37:42;;;;;;;14.75;7.97;;;29.40;93.70;;;;;;5037071;28;20208;-42
2022/07/20 10:40:17;;;;;;;10.00;6.40;;;29.40;93.40;;;;;;5036350;28;20759;-42
2022/07/20 10:42:51;;;;;;;7.68;5.18;;;29.20;92.50;;;;;;5036627;28;20656;-44
2022/07/20 10:45:16;;;;;;;8.30;5.45;;;29.20;92.00;;;;;;5036510;28;20230;-43
2022/07/20 10:47:50;;;;;;;9.93;5.13;;;29.20;92.50;;;;;;5036282;28;20664;-43
2022/07/20 10:50:21;;;;;;;6.40;4.47;;;29.20;92.00;;;;;;5036124;28;20287;-42
2022/07/20 10:52:49;;;;;;;7.78;5.18;;;29.30;92.10;;;;;;5036444;28;20550;-43
2022/07/20 10:55:33;;;;;;;5.03;4.20;;;29.20;91.30;;;;;;5036113;28;20177;-42
2022/07/20 10:58:13;;;;;;;5.15;4.45;;;29.20;91.80;;;;;;5036095;28;20682;-43
2022/07/20 11:00:41;;;;;;;8.95;4.57;;;29.20;91.90;;;;;;5037281;28;20209;-43
2022/07/20 11:03:18;;;;;;;7.97;4.95;;;29.30;92.00;;;;;;5036274;28;20267;-44
2022/07/20 11:05:45;;;;;;;9.43;4.95;;;29.40;92.10;;;;;;5036120;28;20306;-44
2022/07/20 11:08:12;;;;;;;6.65;4.80;;;29.60;91.30;;;;;;5036271;28;20209;-42
2022/07/20 11:10:39;;;;;;;6.75;5.13;;;29.80;92.10;;;;;;5035875;28;20263;-42
2022/07/20 11:13:10;;;;;;;7.20;4.80;;;29.80;91.80;;;;;;5036293;28;20264;-43
2022/07/20 11:15:43;;;;;;;6.68;4.82;;;29.90;91.30;;;;;;5035938;28;20199;-43
2022/07/20 11:18:12;;;;;;;7.32;4.85;;;29.90;91.30;;;;;;5036121;28;20671;-43
2022/07/20 11:20:52;;;;;;;5.90;5.18;;;30.10;92.10;;;;;;5036719;28;20196;-43
2022/07/20 11:23:20;;;;;;;6.22;5.03;;;30.30;90.90;;;;;;5036925;28;20242;-44
2022/07/20 11:25:50;;;;;;;7.82;4.63;;;30.20;91.00;;;;;;5039525;28;20192;-44
2022/07/20 11:28:18;;;;;;;6.57;5.25;;;30.20;91.10;;;;;;5037256;28;20204;-44
2022/07/20 11:30:45;;;;;;;7.13;4.55;;;30.30;91.50;;;;;;5035718;28;20212;-42
2022/07/20 11:33:10;;;;;;;10.57;5.00;;;30.20;91.80;;;;;;5035509;28;20165;-42
2022/07/20 11:35:36;;;;;;;6.88;4.93;;;30.20;91.10;;;;;;5035058;28;20523;-41
2022/07/20 11:38:02;;;;;;;5.75;5.13;;;30.30;91.20;;;;;;5035429;28;20184;-41
2022/07/20 11:40:28;;;;;;;6.40;5.00;;;30.50;91.30;;;;;;5034020;28;20208;-43
2022/07/20 11:43:15;;;;;;;5.72;5.05;;;30.60;91.50;;;;;;5035634;28;20189;-43
2022/07/20 11:45:41;;;;;;;6.32;4.80;;;30.70;91.20;;;;;;5035374;28;20192;-42
2022/07/20 11:48:26;;;;;;;6.85;5.20;;;30.80;91.20;;;;;;5035463;28;20177;-43
2022/07/20 11:50:52;;;;;;;9.85;5.93;;;31.00;91.10;;;;;;5034940;28;20213;-43
2022/07/20 11:53:26;;;;;;;8.45;5.22;;;31.20;90.60;;;;;;5035332;28;20172;-42
2022/07/20 11:55:53;;;;;;;7.28;4.95;;;31.40;90.70;;;;;;5035556;28;20172;-42
2022/07/20 11:58:27;;;;;;;7.18;4.95;;;31.50;90.70;;;;;;5037946;28;20264;-46
2022/07/20 12:00:54;;;;;;;7.03;5.88;;;31.50;89.70;;;;;;5037440;28;20612;-43
2022/07/20 12:03:23;;;;;;;8.70;5.95;;;31.30;90.00;;;;;;5034970;28;20224;-43
2022/07/20 12:05:48;;;;;;;6.32;5.05;;;31.10;90.10;;;;;;5035116;28;20199;-42
2022/07/20 12:08:15;;;;;;;7.38;5.35;;;31.00;90.30;;;;;;5035042;28;20177;-41
2022/07/20 12:10:45;;;;;;;9.43;5.80;;;31.10;90.60;;;;;;5034693;28;20734;-43
2022/07/20 12:13:13;;;;;;;6.40;5.18;;;31.20;91.40;;;;;;5034699;28;20181;-43
2022/07/20 12:15:39;;;;;;;7.55;5.30;;;31.40;90.70;;;;;;5034971;28;20185;-44
2022/07/20 12:18:05;;;;;;;6.78;5.10;;;31.50;91.20;;;;;;5037243;28;20191;-44
2022/07/20 12:20:31;;;;;;;8.60;5.95;;;31.50;90.10;;;;;;5038544;28;20201;-45
2022/07/20 12:22:58;;;;;;;6.85;5.38;;;31.60;90.40;;;;;;5034752;28;20205;-41
2022/07/20 12:25:39;;;;;;;7.72;5.40;;;31.70;90.10;;;;;;5033829;28;20213;-42
2022/07/20 12:28:05;;;;;;;9.00;5.50;;;31.90;90.50;;;;;;5034611;28;20649;-40
2022/07/20 12:30:34;;;;;;;7.47;5.53;;;32.00;89.80;;;;;;5034338;28;20250;-42
2022/07/20 12:33:07;;;;;;;7.20;5.45;;;32.10;90.20;;;;;;5034562;28;20184;-41
2022/07/20 12:35:35;;;;;;;6.30;4.88;;;32.20;88.40;;;;;;5035342;28;20191;-45
2022/07/20 12:38:01;;;;;;;9.13;5.05;;;32.30;88.60;;;;;;5035565;28;20201;-40
2022/07/20 12:40:30;;;;;;;8.93;5.32;;;32.30;89.80;;;;;;5034025;28;20204;-40